Gainesville, FL

9:13 PM EDT on October 01, 2014 (GMT -0400)
Suburban Heights | Change Station
CLOSE
Current Station
Personal Weather Station
Location: Gainesville, FL
Elevation: 150 ft
Nearby Weather Stations

Elev 150 ft 29.67 °N, 82.39 °W | Updated 2 minutes ago

Mostly Cloudy
Mostly Cloudy
75.1 °F
Feels Like 74 °F
N
0.0
Wind Variable Wind from SE
Gusts 1.0 mph

Today
High -- | Low -- °F
--% Chance of Precip.
Yesterday
High -- | Low -- °F
Precip. -- in
7:22 AM 7:15 PM
First Quarter, 53% visible
Pressure 29.98 in
Visibility 10.0 miles
Clouds Mostly Cloudy 4900 ft
Heat Index 74 °F
Dew Point 73 °F
Humidity 93%
Rainfall 0.03 in
Snow Depth Not available.
UV 0 out of 12
Pollen 6.70 out of 12
Air Quality Not available.
Flu Activity Not available.
METAR KGNV 020053Z 05003KT 10SM BKN049 24/22 A2999 RMK AO2 SLP151 T02390222

More Conditions Fewer Conditions

Pressure 29.98 in
Visibility 10.0 miles
Clouds Mostly Cloudy 4900 ft
Heat Index 74 °F
Dew Point 73 °F
Humidity 93%
Rainfall 0.03 in
Snow Depth Not available.
UV 0 out of 12
Pollen 6.70 out of 12
Air Quality Not available.
Flu Activity Not available.
METAR KGNV 020053Z 05003KT 10SM BKN049 24/22 A2999 RMK AO2 SLP151 T02390222

More Conditions Fewer Conditions

10-Day Weather Forecast

Almanac

Astronomy

Oct. 01, 2014 Rise Set
Actual Time 7:22 AM EDT 7:15 PM EDT
Civil Twilight 6:58 AM EDT 7:38 PM EDT
Nautical Twilight 6:31 AM EDT 8:06 PM EDT
Astronomical Twilight 6:03 AM EDT 8:34 PM EDT
Moon 2:04 PM EDT (10/1) 12:04 AM EDT (10/1)
Length of Visible Light 12h 39m
Length of Day
11h 52m
Tomorrow will be 1m 45s shorter.
First Quarter, 53% of the Moon is Illuminated
Today
First Quarter
Oct 8
Full
Oct 15
Last Quarter
Oct 23
New
Oct 30
First Quarter

Today's Extremes

State Highs State Lows

Community

WunderPhotos

Upload Photos

1,758,112 photos uploaded!

WunderBlogs® & News

Nearby

Snow Depth

Station Depth Elevation
No new snow has been reported.

Earthquake Activity

City Distance Mag. Time & Date
No recent earthquake activity has been reported nearby.
Minimum magnitude displayed is 2.5.

Coastal Water Temperatures

Place Temperature
No Stations Reporting

Nearby Weather Stations